createdAt,value
2023-03-12T10:59:25.664Z,7.12
2023-03-12T11:00:29.307Z,7.30
2023-03-12T11:01:32.185Z,7.40
2023-03-12T12:01:57.923Z,8.11
2023-03-12T13:33:40.539Z,8.49
2023-03-12T13:34:45.755Z,8.70
2023-03-12T13:36:12.121Z,9.23
2023-03-12T13:37:28.759Z,9.59
2023-03-12T13:38:52.841Z,9.41
2023-03-12T13:39:54.257Z,9.18
2023-03-12T13:41:02.344Z,9.06
2023-03-12T13:42:28.234Z,8.99
2023-03-12T14:13:49.109Z,8.03
2023-03-12T14:15:18.669Z,8.06
2023-03-12T14:16:34.241Z,8.08
2023-03-12T14:17:37.852Z,8.27
2023-03-12T14:18:43.771Z,8.28
2023-03-12T14:19:50.672Z,8.33
2023-03-12T14:20:59.305Z,8.44
2023-03-12T14:22:04.990Z,8.47
2023-03-12T14:23:13.146Z,8.42
2023-03-12T14:24:58.204Z,8.72
2023-03-12T14:26:04.159Z,8.82
2023-03-12T14:27:13.914Z,8.87
2023-03-12T14:28:24.034Z,8.97
2023-03-12T14:29:31.259Z,9.07
2023-03-12T14:30:57.037Z,9.35
2023-03-12T14:32:03.295Z,9.76
2023-03-12T14:33:05.459Z,10.26
2023-03-12T14:34:20.917Z,10.79
2023-03-12T14:35:37.254Z,10.76
2023-03-12T14:36:46.949Z,10.59
2023-03-12T14:38:11.609Z,10.99
2023-03-12T14:39:21.162Z,11.02
2023-03-12T14:40:53.325Z,11.41
2023-03-12T14:42:04.878Z,11.39
2023-03-12T14:43:29.279Z,11.69
2023-03-12T14:44:32.442Z,11.50
2023-03-12T14:45:40.091Z,11.63
2023-03-12T14:46:55.028Z,11.74
2023-03-12T14:47:58.550Z,11.93
2023-03-12T14:49:00.153Z,11.85
2023-03-12T14:50:01.672Z,11.53
2023-03-12T14:51:05.471Z,11.08
2023-03-12T14:52:08.187Z,11.30
2023-03-12T14:53:18.698Z,11.13
2023-03-12T14:54:24.072Z,10.73
2023-03-12T14:55:26.115Z,10.42
2023-03-12T14:56:35.834Z,10.44
2023-03-12T14:57:37.758Z,10.47
2023-03-12T14:58:48.030Z,10.31
2023-03-12T14:59:57.527Z,10.12
2023-03-12T15:01:03.303Z,9.93
2023-03-12T15:02:14.506Z,10.01
2023-03-12T15:03:17.453Z,9.96
2023-03-12T15:04:24.047Z,9.88
2023-03-12T15:05:26.670Z,9.86
2023-03-12T15:06:29.931Z,9.86
2023-03-12T15:07:39.758Z,9.74
2023-03-12T15:08:44.053Z,9.68
2023-03-12T15:09:50.016Z,9.66
2023-03-12T15:10:54.566Z,9.63
2023-03-12T15:12:07.866Z,9.56
2023-03-12T15:13:12.948Z,9.55
2023-03-12T15:14:15.963Z,9.63
2023-03-12T15:15:46.579Z,9.67
2023-03-12T15:16:49.050Z,9.60
2023-03-12T15:17:50.833Z,9.63
2023-03-12T15:18:53.035Z,9.62
2023-03-12T15:19:57.165Z,9.62
2023-03-12T15:21:01.523Z,9.51
2023-03-12T15:22:04.532Z,9.44
2023-03-12T15:23:07.456Z,9.47
2023-03-12T15:24:13.309Z,9.45
2023-03-12T15:25:20.899Z,9.39
2023-03-12T15:26:22.255Z,9.45
